Time;durP1;ratioP1;P1;durP2;ratioP2;P2;SDS_P1;SDS_P2;PMS_P1;PMS_P2;Temp;Humidity;BMP_temperature;BMP_pressure;BME280_temperature;BME280_humidity;BME280_pressure;Samples;Min_cycle;Max_cycle;Signal;HPM_P1;HPM_P2
2021/12/07 00:01:35;;;;;;;25.87;9.80;;;0.50;97.30;;;;;;4959593;29;20426;-82
2021/12/07 00:04:01;;;;;;;34.77;11.73;;;0.50;97.30;;;;;;4961992;29;20415;-80
2021/12/07 00:06:26;;;;;;;35.67;12.40;;;0.50;97.30;;;;;;4960676;28;21043;-80
2021/12/07 00:08:55;;;;;;;29.23;12.17;;;0.50;97.30;;;;;;4959989;29;20459;-81
2021/12/07 00:11:23;;;;;;;32.13;12.03;;;0.50;97.30;;;;;;4960536;29;20540;-82
2021/12/07 00:13:49;;;;;;;31.40;11.63;;;0.50;97.30;;;;;;4959729;29;20410;-80
2021/12/07 00:16:15;;;;;;;32.03;12.23;;;0.50;97.30;;;;;;4959984;28;20520;-81
2021/12/07 00:18:41;;;;;;;34.73;10.73;;;0.50;97.30;;;;;;4959531;29;21176;-81
2021/12/07 00:21:08;;;;;;;32.73;12.70;;;0.50;97.30;;;;;;4959868;29;20186;-82
2021/12/07 00:23:34;;;;;;;41.63;11.43;;;0.50;97.30;;;;;;4959617;29;20422;-79
2021/12/07 00:26:00;;;;;;;28.10;9.87;;;0.50;97.30;;;;;;4960094;28;20976;-82
2021/12/07 00:28:26;;;;;;;36.40;12.63;;;0.50;97.30;;;;;;4960139;29;20490;-82
2021/12/07 00:30:53;;;;;;;32.80;11.80;;;0.50;97.30;;;;;;4962381;28;20423;-82
2021/12/07 00:35:49;;;;;;;34.77;10.60;;;0.50;97.30;;;;;;4961230;28;20450;-81
2021/12/07 00:38:19;;;;;;;40.97;15.10;;;0.50;97.30;;;;;;4959179;29;20422;-81
2021/12/07 00:40:46;;;;;;;36.20;10.53;;;0.40;97.30;;;;;;4959558;29;20163;-79
2021/12/07 00:43:12;;;;;;;34.70;13.00;;;0.40;97.30;;;;;;4959549;29;20935;-81
2021/12/07 00:45:41;;;;;;;33.87;13.33;;;0.40;97.30;;;;;;4958838;28;20427;-81
2021/12/07 00:48:08;;;;;;;39.80;13.47;;;0.40;97.30;;;;;;4959073;29;20434;-82
2021/12/07 00:50:35;;;;;;;32.50;12.57;;;0.40;97.30;;;;;;4959476;29;20423;-80
2021/12/07 00:53:02;;;;;;;38.23;11.07;;;0.40;97.30;;;;;;4959468;29;20422;-80
2021/12/07 00:55:30;;;;;;;37.13;11.83;;;0.40;97.30;;;;;;4959252;29;20539;-80
2021/12/07 00:57:58;;;;;;;33.03;13.10;;;0.40;97.30;;;;;;4958735;28;20599;-81
2021/12/07 01:00:26;;;;;;;37.30;12.40;;;0.40;97.30;;;;;;4959403;29;20429;-81
2021/12/07 01:02:54;;;;;;;26.23;10.03;;;0.30;97.30;;;;;;4958651;29;20426;-81
2021/12/07 01:05:28;;;;;;;31.87;10.70;;;0.30;97.30;;;;;;4959657;28;20597;-81
2021/12/07 01:08:24;;;;;;;40.97;13.40;;;0.30;97.30;;;;;;4959981;28;20454;-81
2021/12/07 01:24:40;;;;;;;31.90;12.30;;;0.10;97.30;;;;;;4961049;29;20409;-81
2021/12/07 01:27:07;;;;;;;35.07;11.83;;;0.10;97.30;;;;;;4959162;28;20476;-81
2021/12/07 01:29:34;;;;;;;35.50;10.83;;;0.00;97.30;;;;;;4956464;29;20585;-78
2021/12/07 01:34:57;;;;;;;32.53;11.00;;;0.00;97.30;;;;;;4955366;29;20570;-79
2021/12/07 01:43:15;;;;;;;37.13;11.20;;;0.00;97.30;;;;;;4955822;28;20414;-78
2021/12/07 01:51:16;;;;;;;38.67;14.00;;;-0.10;97.30;;;;;;4955636;29;20446;-78
2021/12/07 02:01:54;;;;;;;26.93;9.43;;;-0.20;97.30;;;;;;4974912;28;20402;-77
2021/12/07 02:04:20;;;;;;;38.90;10.70;;;-0.20;97.30;;;;;;4973231;28;20927;-78
2021/12/07 02:06:46;;;;;;;35.20;11.03;;;-0.20;97.30;;;;;;4973301;28;20524;-78
2021/12/07 02:09:12;;;;;;;32.90;11.00;;;-0.20;97.30;;;;;;4973459;28;20418;-78
2021/12/07 02:11:45;;;;;;;31.90;11.67;;;-0.20;97.30;;;;;;4973155;28;20182;-78
2021/12/07 02:14:17;;;;;;;31.20;11.47;;;-0.30;97.30;;;;;;4972659;28;20458;-78
2021/12/07 02:16:49;;;;;;;42.10;13.30;;;-0.20;97.30;;;;;;4973013;28;20438;-79
2021/12/07 02:19:15;;;;;;;33.33;12.97;;;-0.30;97.30;;;;;;4972852;28;20493;-78
2021/12/07 02:21:41;;;;;;;37.70;12.40;;;-0.30;97.30;;;;;;4973037;28;20496;-78
2021/12/07 02:24:06;;;;;;;34.67;11.10;;;-0.30;97.30;;;;;;4957280;28;20438;-78
2021/12/07 02:26:32;;;;;;;35.50;10.67;;;-0.30;97.30;;;;;;4953165;28;20889;-77
2021/12/07 02:28:58;;;;;;;34.30;13.70;;;-0.30;97.30;;;;;;4953774;29;20630;-78
2021/12/07 02:31:25;;;;;;;40.33;12.47;;;-0.30;97.30;;;;;;4953582;29;20474;-78
2021/12/07 02:33:51;;;;;;;36.37;12.40;;;-0.30;97.30;;;;;;4953272;29;20455;-77
2021/12/07 02:36:16;;;;;;;27.67;11.70;;;-0.30;97.30;;;;;;4952974;28;20460;-77
2021/12/07 02:38:42;;;;;;;33.63;10.63;;;-0.30;97.30;;;;;;4954050;29;20443;-77
2021/12/07 02:41:08;;;;;;;36.73;12.30;;;-0.30;97.30;;;;;;4954038;29;20234;-78
2021/12/07 02:43:34;;;;;;;30.07;10.30;;;-0.30;97.30;;;;;;4952795;29;20562;-78
2021/12/07 02:46:00;;;;;;;40.50;12.57;;;-0.30;97.30;;;;;;4953119;28;20229;-77
2021/12/07 02:48:26;;;;;;;30.47;9.87;;;-0.30;97.30;;;;;;4953952;29;20418;-78
2021/12/07 02:50:52;;;;;;;30.83;10.03;;;-0.40;97.30;;;;;;4952971;29;20494;-77
2021/12/07 02:53:22;;;;;;;32.83;10.90;;;-0.40;97.30;;;;;;4952942;29;20183;-77
2021/12/07 02:55:51;;;;;;;33.47;11.23;;;-0.40;97.30;;;;;;4955015;28;20471;-77
2021/12/07 02:58:17;;;;;;;27.90;9.87;;;-0.40;97.30;;;;;;4957282;29;20426;-77
2021/12/07 03:00:51;;;;;;;37.07;10.23;;;-0.40;97.30;;;;;;4957051;29;20423;-77
2021/12/07 03:03:17;;;;;;;33.53;10.03;;;-0.40;97.30;;;;;;4956840;29;20411;-77
2021/12/07 03:27:22;;;;;;;24.23;9.57;;;-0.50;97.30;;;;;;4957881;28;20445;-76
2021/12/07 03:29:47;;;;;;;26.90;9.30;;;-0.50;97.30;;;;;;4956501;29;20418;-76
2021/12/07 03:32:13;;;;;;;32.73;9.90;;;-0.50;97.30;;;;;;4956275;29;20273;-76
2021/12/07 03:34:39;;;;;;;27.73;9.63;;;-0.50;97.30;;;;;;4957106;29;20573;-76
2021/12/07 03:37:04;;;;;;;28.20;8.93;;;-0.50;97.30;;;;;;4956324;28;20202;-76
2021/12/07 03:39:30;;;;;;;23.63;10.43;;;-0.50;97.30;;;;;;4956372;29;20235;-77
2021/12/07 03:41:56;;;;;;;32.23;10.60;;;-0.50;97.30;;;;;;4956748;29;20251;-76
2021/12/07 03:44:21;;;;;;;27.77;10.80;;;-0.50;97.30;;;;;;4956060;29;20637;-76
2021/12/07 03:46:47;;;;;;;31.83;10.10;;;-0.50;97.30;;;;;;4956320;28;20451;-76
2021/12/07 03:49:13;;;;;;;31.93;10.57;;;-0.50;97.30;;;;;;4956092;29;20187;-76
2021/12/07 03:51:39;;;;;;;38.40;10.93;;;-0.50;97.30;;;;;;4956107;29;20307;-76
2021/12/07 03:54:05;;;;;;;30.43;10.00;;;-0.50;97.30;;;;;;4956242;28;20300;-76
2021/12/07 03:56:31;;;;;;;34.77;9.77;;;-0.50;97.30;;;;;;4956636;28;20436;-76
2021/12/07 03:58:56;;;;;;;22.87;9.17;;;-0.50;97.30;;;;;;4955733;29;20440;-76
2021/12/07 04:01:23;;;;;;;29.33;9.60;;;-0.50;97.30;;;;;;4955530;29;20183;-77
2021/12/07 04:03:52;;;;;;;24.30;9.93;;;-0.50;97.30;;;;;;4957109;29;20222;-77
2021/12/07 04:06:18;;;;;;;31.10;9.40;;;-0.50;97.30;;;;;;4955085;28;20442;-77
2021/12/07 04:08:44;;;;;;;24.80;8.87;;;-0.50;97.30;;;;;;4955165;29;20446;-76
2021/12/07 04:11:10;;;;;;;23.50;8.50;;;-0.50;97.30;;;;;;4955723;29;20474;-77
2021/12/07 04:13:36;;;;;;;26.33;9.00;;;-0.50;97.30;;;;;;4956296;29;20270;-77
2021/12/07 04:16:04;;;;;;;26.50;9.20;;;-0.50;97.30;;;;;;4955081;29;20472;-76
2021/12/07 04:18:30;;;;;;;24.33;9.17;;;-0.50;97.30;;;;;;4955394;29;20660;-76
2021/12/07 04:20:57;;;;;;;27.27;8.90;;;-0.60;97.30;;;;;;4955662;29;20415;-78
2021/12/07 04:23:23;;;;;;;25.97;8.97;;;-0.60;97.30;;;;;;4955560;29;20319;-76
2021/12/07 04:25:49;;;;;;;21.27;8.87;;;-0.60;97.30;;;;;;4954991;28;20997;-76
2021/12/07 04:28:15;;;;;;;22.67;8.50;;;-0.60;97.30;;;;;;4955403;29;20423;-76
2021/12/07 04:30:42;;;;;;;29.07;9.97;;;-0.60;97.30;;;;;;4955622;29;20278;-77
2021/12/07 04:33:09;;;;;;;18.83;9.67;;;-0.60;97.30;;;;;;4955400;29;20685;-78
2021/12/07 04:35:38;;;;;;;26.43;9.20;;;-0.60;97.30;;;;;;4955254;29;20537;-76
2021/12/07 04:38:04;;;;;;;22.23;9.07;;;-0.60;97.30;;;;;;4955475;29;20422;-77
2021/12/07 04:40:31;;;;;;;27.30;10.37;;;-0.60;97.30;;;;;;4955941;29;20917;-76
2021/12/07 04:42:57;;;;;;;23.70;7.83;;;-0.50;97.30;;;;;;4954881;29;20430;-78
2021/12/07 04:59:01;;;;;;;21.10;7.90;;;-0.50;97.30;;;;;;4956422;29;20402;-77
2021/12/07 05:01:26;;;;;;;26.07;8.00;;;-0.50;97.30;;;;;;4954655;29;20448;-77
2021/12/07 05:03:56;;;;;;;20.33;8.17;;;-0.50;97.30;;;;;;4954800;29;20187;-77
2021/12/07 05:06:26;;;;;;;21.67;7.90;;;-0.50;97.30;;;;;;4955302;29;20199;-77
2021/12/07 05:08:58;;;;;;;17.20;7.67;;;-0.50;97.30;;;;;;4957392;28;20444;-76
2021/12/07 05:11:32;;;;;;;18.93;7.13;;;-0.50;97.30;;;;;;4955149;28;20421;-76
2021/12/07 05:38:45;;;;;;;20.83;7.13;;;-0.50;97.30;;;;;;4936421;29;20419;-77
2021/12/07 05:41:11;;;;;;;22.97;8.20;;;-0.50;97.30;;;;;;4934677;29;20911;-77
2021/12/07 05:43:36;;;;;;;22.90;8.50;;;-0.50;97.30;;;;;;4934641;29;20179;-77
2021/12/07 05:46:03;;;;;;;22.03;8.00;;;-0.60;97.30;;;;;;4933986;29;20682;-77
2021/12/07 05:48:28;;;;;;;23.37;8.30;;;-0.50;97.30;;;;;;4934365;29;20341;-79
2021/12/07 05:50:54;;;;;;;22.13;8.07;;;-0.60;97.30;;;;;;4935616;29;20416;-77
2021/12/07 05:53:20;;;;;;;22.13;8.80;;;-0.60;97.30;;;;;;4934655;29;20192;-77
2021/12/07 05:55:46;;;;;;;25.57;8.50;;;-0.60;97.30;;;;;;4934248;29;20373;-78
2021/12/07 05:58:12;;;;;;;25.40;8.50;;;-0.60;97.30;;;;;;4934526;29;20179;-77
2021/12/07 06:00:42;;;;;;;23.47;7.83;;;-0.60;97.30;;;;;;4934267;29;20431;-77
2021/12/07 06:03:09;;;;;;;18.37;7.70;;;-0.60;97.30;;;;;;4934718;29;20423;-79
2021/12/07 06:05:36;;;;;;;28.53;9.90;;;-0.60;97.30;;;;;;4935475;29;20415;-79
2021/12/07 06:08:02;;;;;;;29.63;10.87;;;-0.60;97.30;;;;;;4934175;29;20420;-78
2021/12/07 06:10:28;;;;;;;22.57;7.80;;;-0.60;97.30;;;;;;4934252;29;20430;-79
2021/12/07 06:12:54;;;;;;;22.37;7.97;;;-0.60;97.30;;;;;;4935576;29;20434;-78
2021/12/07 06:15:22;;;;;;;22.83;9.03;;;-0.60;97.30;;;;;;4935395;29;20953;-79
2021/12/07 06:17:49;;;;;;;23.77;8.37;;;-0.60;97.30;;;;;;4935527;29;20205;-78
2021/12/07 06:20:15;;;;;;;23.33;7.50;;;-0.60;97.30;;;;;;4934410;29;20423;-78
2021/12/07 06:22:41;;;;;;;20.33;8.83;;;-0.60;97.30;;;;;;4934139;29;20423;-78
2021/12/07 06:25:08;;;;;;;22.73;8.53;;;-0.60;97.30;;;;;;4934375;29;20425;-78
2021/12/07 06:27:34;;;;;;;24.40;8.30;;;-0.60;97.30;;;;;;4933907;29;20239;-79
2021/12/07 06:30:00;;;;;;;19.23;7.20;;;-0.60;97.30;;;;;;4933489;29;20794;-78
2021/12/07 06:32:25;;;;;;;27.97;8.17;;;-0.60;97.30;;;;;;4935275;29;21006;-77
2021/12/07 06:34:52;;;;;;;20.30;7.40;;;-0.60;97.30;;;;;;4934114;29;20467;-77
2021/12/07 06:37:17;;;;;;;19.80;8.30;;;-0.60;97.30;;;;;;4933991;29;20195;-77
2021/12/07 06:39:44;;;;;;;19.87;8.87;;;-0.60;97.30;;;;;;4935395;29;20930;-77
2021/12/07 06:42:10;;;;;;;24.27;8.37;;;-0.60;97.30;;;;;;4934066;29;20183;-77
2021/12/07 06:44:36;;;;;;;20.77;8.43;;;-0.60;97.30;;;;;;4934347;29;20499;-77
2021/12/07 06:47:02;;;;;;;21.43;8.97;;;-0.50;97.30;;;;;;4933808;29;20453;-78
2021/12/07 06:49:28;;;;;;;19.87;8.87;;;-0.50;97.30;;;;;;4934326;29;20423;-77
2021/12/07 06:51:54;;;;;;;25.10;8.50;;;-0.50;97.30;;;;;;4933996;29;20416;-77
2021/12/07 06:54:20;;;;;;;21.47;8.37;;;-0.50;97.30;;;;;;4939441;29;20312;-77
2021/12/07 06:56:46;;;;;;;24.10;8.17;;;-0.40;97.30;;;;;;4953003;28;20222;-77
2021/12/07 06:59:11;;;;;;;29.27;8.73;;;-0.40;97.30;;;;;;4953145;29;20513;-77
2021/12/07 07:01:37;;;;;;;21.20;7.53;;;-0.40;97.30;;;;;;4953092;29;20186;-77
2021/12/07 07:04:03;;;;;;;28.47;8.83;;;-0.40;97.30;;;;;;4953132;29;20274;-76
2021/12/07 07:06:29;;;;;;;26.83;9.00;;;-0.40;97.30;;;;;;4953008;28;20467;-77
2021/12/07 07:08:54;;;;;;;28.73;9.10;;;-0.30;97.30;;;;;;4953157;29;20210;-77
2021/12/07 07:11:20;;;;;;;29.07;9.70;;;-0.30;97.30;;;;;;4953036;29;20234;-77
2021/12/07 07:13:47;;;;;;;19.70;8.10;;;-0.30;97.30;;;;;;4952968;29;20177;-77
2021/12/07 07:16:13;;;;;;;36.10;9.70;;;-0.20;97.30;;;;;;4952206;28;20474;-77
2021/12/07 07:18:39;;;;;;;27.40;8.60;;;-0.20;97.30;;;;;;4953652;28;20414;-76
2021/12/07 07:21:06;;;;;;;24.73;8.93;;;-0.20;97.30;;;;;;4952672;29;20928;-77
2021/12/07 07:23:32;;;;;;;21.40;8.80;;;-0.10;97.30;;;;;;4952702;29;20947;-77
2021/12/07 07:25:58;;;;;;;23.50;8.80;;;-0.10;97.30;;;;;;4951468;28;20471;-78
2021/12/07 07:28:26;;;;;;;38.07;11.30;;;0.00;97.30;;;;;;4949223;29;20241;-77
2021/12/07 07:30:51;;;;;;;23.00;8.10;;;0.00;97.30;;;;;;4950351;29;20183;-77
2021/12/07 07:33:17;;;;;;;27.20;10.17;;;0.00;97.30;;;;;;4949442;29;20426;-78
2021/12/07 07:35:43;;;;;;;27.40;8.93;;;0.00;97.30;;;;;;4950155;28;20226;-77
2021/12/07 07:38:09;;;;;;;23.90;8.90;;;0.10;97.30;;;;;;4950062;29;20186;-78
2021/12/07 07:40:34;;;;;;;25.73;8.80;;;0.10;97.30;;;;;;4950250;29;20422;-77
2021/12/07 07:43:00;;;;;;;23.30;8.63;;;0.10;97.30;;;;;;4953301;29;20176;-77
2021/12/07 07:45:27;;;;;;;27.67;10.33;;;0.10;97.30;;;;;;4953875;29;20215;-77
2021/12/07 07:47:54;;;;;;;21.73;8.87;;;0.10;97.30;;;;;;4953527;28;20453;-77
2021/12/07 07:50:21;;;;;;;28.10;10.37;;;0.10;97.30;;;;;;4953391;29;20187;-77
2021/12/07 07:52:46;;;;;;;26.90;8.60;;;0.20;97.30;;;;;;4953706;29;20427;-77
2021/12/07 07:55:13;;;;;;;35.83;9.40;;;0.20;97.30;;;;;;4953207;29;21014;-77
2021/12/07 07:57:38;;;;;;;25.50;9.63;;;0.20;97.30;;;;;;4953618;28;20258;-78
2021/12/07 08:00:07;;;;;;;23.17;8.93;;;0.20;97.30;;;;;;4971236;28;20433;-77
2021/12/07 08:02:33;;;;;;;34.57;11.83;;;0.30;97.30;;;;;;4972772;28;20182;-77
2021/12/07 08:04:59;;;;;;;26.30;9.33;;;0.30;97.30;;;;;;4958693;28;20781;-78
2021/12/07 08:07:24;;;;;;;32.63;10.37;;;0.40;97.30;;;;;;4953758;28;20242;-77
2021/12/07 08:09:50;;;;;;;24.20;9.00;;;0.40;97.30;;;;;;4953608;29;20638;-78
2021/12/07 08:12:15;;;;;;;31.30;9.67;;;0.40;97.30;;;;;;4953223;29;20198;-78
2021/12/07 08:14:41;;;;;;;33.30;11.87;;;0.50;97.30;;;;;;4954325;29;20199;-77
2021/12/07 08:17:07;;;;;;;28.73;9.77;;;0.50;97.30;;;;;;4953050;28;20246;-77
2021/12/07 08:19:33;;;;;;;30.10;10.03;;;0.60;97.30;;;;;;4953465;29;20744;-78
2021/12/07 08:21:58;;;;;;;31.40;10.03;;;0.60;97.30;;;;;;4952987;29;20273;-78
2021/12/07 08:24:24;;;;;;;24.23;10.60;;;0.70;97.30;;;;;;4969578;28;20426;-78
2021/12/07 08:26:49;;;;;;;29.30;10.70;;;0.70;97.30;;;;;;4953038;28;20238;-77
2021/12/07 08:29:15;;;;;;;23.67;9.30;;;0.70;97.30;;;;;;4969040;28;20198;-79
2021/12/07 08:31:43;;;;;;;22.00;8.60;;;0.80;97.30;;;;;;4954194;28;20180;-77
2021/12/07 08:34:08;;;;;;;25.27;10.30;;;0.80;97.30;;;;;;4952767;29;20523;-78
2021/12/07 08:36:34;;;;;;;28.90;10.97;;;0.80;97.30;;;;;;4952772;28;20855;-78
2021/12/07 08:39:00;;;;;;;24.37;9.13;;;0.90;97.30;;;;;;4952762;29;20593;-77
2021/12/07 08:41:25;;;;;;;25.07;9.83;;;0.90;97.30;;;;;;4952396;29;20211;-78
2021/12/07 08:43:51;;;;;;;31.43;10.97;;;1.00;97.30;;;;;;4952450;29;20186;-77
2021/12/07 08:46:17;;;;;;;24.23;9.43;;;1.00;97.30;;;;;;4953864;28;20199;-78
2021/12/07 08:48:43;;;;;;;26.50;9.07;;;1.00;97.30;;;;;;4968934;28;20183;-79
2021/12/07 08:51:11;;;;;;;27.93;11.17;;;1.10;97.30;;;;;;4952974;29;21078;-77
2021/12/07 08:53:44;;;;;;;25.43;10.07;;;1.20;97.30;;;;;;4951978;28;20237;-78
2021/12/07 09:01:38;;;;;;;27.83;9.50;;;1.30;97.30;;;;;;4952995;29;20840;-77
2021/12/07 09:04:04;;;;;;;26.97;10.87;;;1.40;97.30;;;;;;4952234;29;20454;-78
2021/12/07 09:06:30;;;;;;;23.77;9.33;;;1.40;97.30;;;;;;4952206;28;20210;-78
2021/12/07 09:08:57;;;;;;;28.63;10.83;;;1.50;97.30;;;;;;4953705;29;20434;-78
2021/12/07 09:11:23;;;;;;;30.23;11.10;;;1.60;97.30;;;;;;4968599;28;20245;-77
2021/12/07 09:13:49;;;;;;;25.53;9.80;;;1.60;97.30;;;;;;4951995;29;20434;-78
2021/12/07 09:16:17;;;;;;;24.87;11.00;;;1.70;97.30;;;;;;4951531;28;20481;-79
2021/12/07 09:18:44;;;;;;;35.67;10.20;;;1.70;97.30;;;;;;4951668;29;20717;-77
2021/12/07 09:21:10;;;;;;;25.17;9.37;;;1.70;97.30;;;;;;4953218;28;20510;-78
2021/12/07 09:23:36;;;;;;;28.97;10.00;;;1.80;97.30;;;;;;4951794;29;20520;-78
2021/12/07 09:26:03;;;;;;;23.50;9.00;;;1.80;97.30;;;;;;4951774;28;20481;-78
2021/12/07 09:28:29;;;;;;;27.60;9.63;;;1.80;97.30;;;;;;4951872;29;20269;-78
2021/12/07 09:30:55;;;;;;;29.20;10.10;;;1.80;97.30;;;;;;4951530;29;20462;-77
2021/12/07 09:33:27;;;;;;;27.83;10.57;;;1.90;97.30;;;;;;4951683;29;20269;-78
2021/12/07 09:35:54;;;;;;;24.37;10.50;;;1.90;97.30;;;;;;4967755;28;20577;-78
2021/12/07 09:38:21;;;;;;;28.40;10.13;;;1.90;97.30;;;;;;4951805;29;20443;-78
2021/12/07 09:40:48;;;;;;;28.03;10.57;;;2.00;97.30;;;;;;4967456;28;20410;-79
2021/12/07 09:43:14;;;;;;;30.40;9.50;;;2.00;97.30;;;;;;4951444;29;20415;-78
2021/12/07 09:45:41;;;;;;;24.30;10.07;;;2.00;97.30;;;;;;4951254;28;20419;-78
2021/12/07 09:48:09;;;;;;;29.77;9.70;;;2.10;97.30;;;;;;4967925;28;20427;-78
2021/12/07 09:50:36;;;;;;;30.27;10.30;;;2.10;97.30;;;;;;4951984;29;20423;-78
2021/12/07 09:53:07;;;;;;;27.07;9.80;;;2.20;97.30;;;;;;4951690;29;20503;-78
2021/12/07 09:55:34;;;;;;;25.60;10.60;;;2.20;97.30;;;;;;4951459;29;20462;-78
2021/12/07 09:58:00;;;;;;;24.83;9.70;;;2.30;97.30;;;;;;4952197;28;20426;-78
2021/12/07 10:00:26;;;;;;;24.90;10.87;;;2.40;97.30;;;;;;4970334;28;20413;-79
2021/12/07 10:02:52;;;;;;;28.40;9.20;;;2.30;97.30;;;;;;4970504;28;20174;-78
2021/12/07 10:05:19;;;;;;;25.07;9.67;;;2.30;97.30;;;;;;4969551;28;20520;-78
2021/12/07 10:07:46;;;;;;;26.20;10.37;;;2.30;97.30;;;;;;4959720;28;20445;-78
2021/12/07 10:10:22;;;;;;;30.77;8.63;;;2.30;97.30;;;;;;4952406;28;20422;-78
2021/12/07 10:12:48;;;;;;;30.57;11.10;;;2.30;97.30;;;;;;4950968;29;20423;-79
2021/12/07 10:15:14;;;;;;;23.47;8.80;;;2.30;97.30;;;;;;4951310;29;20469;-78
2021/12/07 10:17:42;;;;;;;26.40;9.40;;;2.30;97.30;;;;;;4952480;28;20201;-78
2021/12/07 10:20:25;;;;;;;35.13;9.90;;;2.40;97.30;;;;;;4952285;29;20414;-78
2021/12/07 10:22:52;;;;;;;24.77;8.77;;;2.40;97.30;;;;;;4951248;29;20453;-79
2021/12/07 10:25:26;;;;;;;30.13;10.03;;;2.50;97.30;;;;;;4950841;29;20715;-78
2021/12/07 10:27:52;;;;;;;24.77;9.60;;;2.50;97.30;;;;;;4950824;28;20455;-78
2021/12/07 10:30:21;;;;;;;31.10;10.40;;;2.60;97.30;;;;;;4949969;29;20423;-79
2021/12/07 10:33:02;;;;;;;26.50;9.57;;;2.70;97.30;;;;;;4967216;28;20423;-78
2021/12/07 10:35:36;;;;;;;27.17;9.77;;;2.70;97.30;;;;;;4939847;29;20469;-79
2021/12/07 10:38:10;;;;;;;25.17;10.50;;;2.80;97.30;;;;;;4950726;29;20419;-79
2021/12/07 10:40:36;;;;;;;19.93;9.00;;;2.80;97.30;;;;;;4951223;29;20419;-78
2021/12/07 10:43:02;;;;;;;30.17;11.17;;;2.90;97.30;;;;;;4951292;29;20426;-78
2021/12/07 10:45:28;;;;;;;28.47;10.90;;;2.90;97.30;;;;;;4950929;29;20822;-78
2021/12/07 10:47:54;;;;;;;29.03;10.70;;;2.90;97.30;;;;;;4950044;28;20490;-78
2021/12/07 10:50:20;;;;;;;21.93;10.47;;;3.00;97.30;;;;;;4951154;29;20418;-78
2021/12/07 10:52:46;;;;;;;23.43;10.47;;;3.00;97.30;;;;;;4949599;29;20182;-78
2021/12/07 10:55:25;;;;;;;27.53;10.40;;;3.00;97.30;;;;;;4950227;29;20545;-78
2021/12/07 10:58:05;;;;;;;30.23;11.67;;;3.00;97.30;;;;;;4949568;28;20559;-79
2021/12/07 11:00:40;;;;;;;25.73;9.03;;;2.90;97.30;;;;;;4930909;29;20638;-78
2021/12/07 11:03:09;;;;;;;25.80;9.67;;;3.00;97.30;;;;;;4931533;29;20442;-78
2021/12/07 11:05:36;;;;;;;24.30;9.13;;;3.00;97.30;;;;;;4944517;28;20419;-78
2021/12/07 11:08:05;;;;;;;20.67;9.60;;;3.00;97.30;;;;;;4949807;29;20432;-78
2021/12/07 11:10:34;;;;;;;21.57;8.87;;;3.00;97.30;;;;;;4947542;29;20971;-78
2021/12/07 11:13:14;;;;;;;26.30;9.90;;;3.10;97.30;;;;;;4951474;28;20482;-78
2021/12/07 11:15:52;;;;;;;30.10;10.70;;;3.10;97.30;;;;;;4950390;28;20566;-79
2021/12/07 11:18:34;;;;;;;28.20;9.90;;;3.10;97.30;;;;;;4955184;29;21004;-79
2021/12/07 11:21:06;;;;;;;17.13;8.37;;;3.10;97.30;;;;;;4955439;29;20411;-78
2021/12/07 11:23:38;;;;;;;22.77;9.37;;;3.10;97.30;;;;;;4953897;29;20763;-78
2021/12/07 11:31:36;;;;;;;27.00;10.57;;;3.20;97.30;;;;;;4958868;28;20425;-79
2021/12/07 11:34:18;;;;;;;20.37;9.00;;;3.20;97.30;;;;;;4967784;28;20414;-79
2021/12/07 11:36:52;;;;;;;29.10;11.27;;;3.30;97.30;;;;;;4934473;29;20448;-79
2021/12/07 11:39:47;;;;;;;24.50;9.50;;;3.40;97.30;;;;;;4953576;28;21015;-78
2021/12/07 11:42:23;;;;;;;28.20;11.93;;;3.40;97.30;;;;;;4969264;28;20503;-78
2021/12/07 11:44:55;;;;;;;23.47;10.50;;;3.40;97.30;;;;;;4952414;29;20936;-78
2021/12/07 11:47:34;;;;;;;22.53;9.10;;;3.50;97.30;;;;;;4961737;28;20449;-78
2021/12/07 11:50:16;;;;;;;30.10;11.33;;;3.60;97.30;;;;;;4967384;28;20413;-78
2021/12/07 11:52:42;;;;;;;29.17;10.73;;;3.70;97.30;;;;;;4970799;28;20413;-78
2021/12/07 11:55:09;;;;;;;24.07;9.63;;;3.80;97.30;;;;;;4956744;28;20461;-77
2021/12/07 11:57:35;;;;;;;22.10;10.37;;;3.90;97.30;;;;;;4971403;28;20524;-78
2021/12/07 12:00:03;;;;;;;25.13;9.33;;;3.90;97.30;;;;;;4954363;28;20949;-78
2021/12/07 12:02:29;;;;;;;22.30;9.00;;;3.90;97.30;;;;;;4963909;28;20416;-80
2021/12/07 12:04:54;;;;;;;23.23;9.77;;;3.90;97.30;;;;;;4956535;28;20423;-78
2021/12/07 12:07:20;;;;;;;26.07;9.50;;;4.00;97.30;;;;;;4961934;28;20211;-78
2021/12/07 12:09:51;;;;;;;27.13;10.40;;;4.00;97.30;;;;;;4956675;28;20264;-77
2021/12/07 12:12:40;;;;;;;27.33;10.53;;;4.00;97.30;;;;;;4971341;28;20274;-77
2021/12/07 12:15:27;;;;;;;29.50;10.03;;;4.00;97.30;;;;;;4943321;28;20450;-78
2021/12/07 12:18:14;;;;;;;25.30;9.40;;;3.90;97.30;;;;;;4954070;28;20450;-79
2021/12/07 12:21:09;;;;;;;30.60;10.73;;;3.90;97.30;;;;;;4947978;28;20419;-79
2021/12/07 12:24:08;;;;;;;30.80;9.80;;;3.80;97.30;;;;;;4951137;28;20953;-79
2021/12/07 12:26:35;;;;;;;24.17;9.97;;;3.90;97.30;;;;;;4927777;28;20470;-79
2021/12/07 12:29:01;;;;;;;21.20;9.80;;;3.80;97.30;;;;;;4955548;28;20416;-78
2021/12/07 12:31:47;;;;;;;27.50;10.73;;;3.90;97.30;;;;;;4964549;28;20702;-79
2021/12/07 12:34:22;;;;;;;24.80;9.63;;;3.90;97.30;;;;;;4963588;28;20847;-79
2021/12/07 12:37:00;;;;;;;20.50;9.03;;;3.90;97.30;;;;;;4952132;28;20458;-80
2021/12/07 12:39:48;;;;;;;20.87;8.97;;;3.90;97.30;;;;;;4969404;28;20426;-79
2021/12/07 12:42:42;;;;;;;23.17;9.20;;;3.90;97.30;;;;;;4954040;28;20470;-80
2021/12/07 12:45:26;;;;;;;20.40;9.27;;;3.90;97.30;;;;;;4968904;28;20766;-79
2021/12/07 12:48:08;;;;;;;26.10;9.00;;;3.80;97.30;;;;;;4943042;28;20438;-80
2021/12/07 12:50:43;;;;;;;28.97;10.83;;;3.80;97.30;;;;;;4961052;28;20473;-80
2021/12/07 12:53:12;;;;;;;29.60;11.57;;;3.80;97.30;;;;;;4968005;28;20425;-79
2021/12/07 12:55:56;;;;;;;28.90;11.17;;;3.80;97.30;;;;;;4970547;28;20462;-79
2021/12/07 12:58:28;;;;;;;27.83;9.20;;;3.80;97.30;;;;;;4961500;28;20932;-80
2021/12/07 13:01:08;;;;;;;33.43;10.30;;;3.70;97.30;;;;;;4958400;28;20773;-78
2021/12/07 13:03:51;;;;;;;20.00;9.37;;;3.80;97.30;;;;;;4953086;28;20838;-79
2021/12/07 13:06:21;;;;;;;19.53;8.20;;;3.70;97.30;;;;;;4974979;28;21023;-80
2021/12/07 13:09:03;;;;;;;22.17;9.03;;;3.80;97.30;;;;;;4965639;28;20437;-80
2021/12/07 13:11:34;;;;;;;23.47;8.93;;;3.80;97.30;;;;;;4954259;28;20422;-79
2021/12/07 13:14:01;;;;;;;28.10;11.60;;;3.80;97.30;;;;;;4958639;28;20430;-78
2021/12/07 13:16:27;;;;;;;34.03;12.33;;;3.80;97.30;;;;;;4959414;28;20834;-79
2021/12/07 13:19:07;;;;;;;38.10;12.80;;;3.80;97.30;;;;;;4953887;28;20415;-78
2021/12/07 13:21:44;;;;;;;26.50;11.47;;;3.90;97.30;;;;;;4954089;28;20407;-79
2021/12/07 13:24:33;;;;;;;31.63;11.60;;;4.00;97.30;;;;;;4965533;28;20476;-79
2021/12/07 13:27:01;;;;;;;24.87;10.30;;;4.10;97.30;;;;;;4945732;28;20882;-81
2021/12/07 13:29:27;;;;;;;31.23;10.93;;;4.10;97.30;;;;;;4961950;28;20808;-79
2021/12/07 13:32:02;;;;;;;23.60;10.80;;;4.20;97.30;;;;;;4950581;29;20435;-80
2021/12/07 13:34:33;;;;;;;25.47;10.00;;;4.30;97.30;;;;;;4955350;28;20183;-79
2021/12/07 13:37:02;;;;;;;22.43;8.73;;;4.40;97.30;;;;;;4961917;28;20582;-79
2021/12/07 13:39:36;;;;;;;21.50;8.80;;;4.50;97.30;;;;;;4951677;28;20435;-79
2021/12/07 13:42:09;;;;;;;18.27;8.67;;;4.60;97.30;;;;;;4952398;28;20992;-78
2021/12/07 13:44:37;;;;;;;24.17;9.87;;;4.60;97.30;;;;;;4949507;28;20426;-78
2021/12/07 13:47:31;;;;;;;26.17;10.87;;;4.70;97.30;;;;;;4947321;28;20453;-78
2021/12/07 13:50:01;;;;;;;28.90;10.50;;;4.60;97.30;;;;;;4952251;28;20493;-78
2021/12/07 13:52:30;;;;;;;28.33;10.47;;;4.60;97.30;;;;;;4955094;28;20419;-78
2021/12/07 13:55:00;;;;;;;22.03;10.10;;;4.60;97.30;;;;;;4947869;28;20459;-78
2021/12/07 13:57:29;;;;;;;22.67;9.10;;;4.50;97.30;;;;;;4949496;28;20551;-80
2021/12/07 13:59:56;;;;;;;28.53;11.47;;;4.50;97.30;;;;;;4967945;28;20414;-79
2021/12/07 14:02:23;;;;;;;26.87;10.50;;;4.40;97.30;;;;;;4955382;28;20517;-79
2021/12/07 14:04:49;;;;;;;23.87;10.93;;;4.30;97.30;;;;;;4951803;29;20431;-80
2021/12/07 14:07:39;;;;;;;26.10;9.83;;;4.30;97.30;;;;;;4950727;28;20937;-80
2021/12/07 14:10:08;;;;;;;27.90;10.80;;;4.30;97.30;;;;;;4949924;28;20430;-79
2021/12/07 14:12:34;;;;;;;21.83;9.80;;;4.30;97.30;;;;;;4952853;28;20599;-80
2021/12/07 14:15:25;;;;;;;17.90;8.70;;;4.30;97.30;;;;;;4952215;29;20466;-80
2021/12/07 14:17:57;;;;;;;15.07;7.20;;;4.30;97.30;;;;;;4949512;28;20644;-79
2021/12/07 14:20:48;;;;;;;17.57;6.70;;;4.20;97.30;;;;;;4961838;28;20536;-79
2021/12/07 14:23:22;;;;;;;19.87;8.30;;;4.20;97.30;;;;;;4951257;29;20433;-79
2021/12/07 14:25:59;;;;;;;21.53;8.63;;;4.20;97.30;;;;;;4953118;28;20851;-79
2021/12/07 14:28:37;;;;;;;22.57;9.50;;;4.20;97.30;;;;;;4951630;28;20947;-79
2021/12/07 14:31:32;;;;;;;23.17;9.80;;;4.20;97.30;;;;;;4966463;28;20903;-79
2021/12/07 14:34:04;;;;;;;16.80;8.20;;;4.20;97.30;;;;;;4952343;28;20463;-79
2021/12/07 14:36:41;;;;;;;18.27;9.80;;;4.20;97.30;;;;;;4954887;28;20486;-79
2021/12/07 14:39:16;;;;;;;22.33;9.43;;;4.10;97.30;;;;;;4937167;28;20425;-80